sensor_id;sensor_type;location;lat;lon;timestamp;temperature;humidity
43520;DHT22;46848;51.980;5.918;2023-03-31T00:02:20;12.90;77.80
43520;DHT22;46848;51.980;5.918;2023-03-31T00:04:47;13.00;77.90
43520;DHT22;46848;51.980;5.918;2023-03-31T00:07:17;13.00;77.70
43520;DHT22;46848;51.980;5.918;2023-03-31T00:09:47;13.00;77.60
43520;DHT22;46848;51.980;5.918;2023-03-31T00:12:14;13.00;79.00
43520;DHT22;46848;51.980;5.918;2023-03-31T00:14:41;13.00;79.40
43520;DHT22;46848;51.980;5.918;2023-03-31T00:17:08;13.00;78.80
43520;DHT22;46848;51.980;5.918;2023-03-31T00:19:34;13.00;78.80
43520;DHT22;46848;51.980;5.918;2023-03-31T00:22:00;13.00;79.00
43520;DHT22;46848;51.980;5.918;2023-03-31T00:24:30;12.90;80.00
43520;DHT22;46848;51.980;5.918;2023-03-31T00:27:01;12.90;80.20
43520;DHT22;46848;51.980;5.918;2023-03-31T00:29:27;12.90;79.70
43520;DHT22;46848;51.980;5.918;2023-03-31T00:31:54;12.90;80.40
43520;DHT22;46848;51.980;5.918;2023-03-31T00:34:20;12.90;80.00
43520;DHT22;46848;51.980;5.918;2023-03-31T00:36:46;12.90;80.00
43520;DHT22;46848;51.980;5.918;2023-03-31T00:39:15;12.90;80.60
43520;DHT22;46848;51.980;5.918;2023-03-31T00:41:42;12.90;80.10
43520;DHT22;46848;51.980;5.918;2023-03-31T00:46:44;12.90;80.20
43520;DHT22;46848;51.980;5.918;2023-03-31T00:49:33;12.90;79.90
43520;DHT22;46848;51.980;5.918;2023-03-31T00:52:04;12.90;79.70
43520;DHT22;46848;51.980;5.918;2023-03-31T00:54:31;12.90;79.30
43520;DHT22;46848;51.980;5.918;2023-03-31T00:56:58;12.90;79.90
43520;DHT22;46848;51.980;5.918;2023-03-31T00:59:30;12.90;81.70
43520;DHT22;46848;51.980;5.918;2023-03-31T01:01:58;12.80;80.80
43520;DHT22;46848;51.980;5.918;2023-03-31T01:04:32;12.80;80.20
43520;DHT22;46848;51.980;5.918;2023-03-31T01:07:19;12.80;79.90
43520;DHT22;46848;51.980;5.918;2023-03-31T01:09:47;12.80;81.10
43520;DHT22;46848;51.980;5.918;2023-03-31T01:12:16;12.80;80.90
43520;DHT22;46848;51.980;5.918;2023-03-31T01:14:42;12.80;80.80
43520;DHT22;46848;51.980;5.918;2023-03-31T01:17:08;12.80;80.50
43520;DHT22;46848;51.980;5.918;2023-03-31T01:19:49;12.80;80.40
43520;DHT22;46848;51.980;5.918;2023-03-31T01:25:31;12.70;80.50
43520;DHT22;46848;51.980;5.918;2023-03-31T01:39:59;12.60;82.90
43520;DHT22;46848;51.980;5.918;2023-03-31T01:42:38;12.50;82.40
43520;DHT22;46848;51.980;5.918;2023-03-31T01:47:54;12.60;82.10
43520;DHT22;46848;51.980;5.918;2023-03-31T01:53:16;12.60;82.30
43520;DHT22;46848;51.980;5.918;2023-03-31T01:56:03;12.60;82.30
43520;DHT22;46848;51.980;5.918;2023-03-31T02:01:48;12.60;81.90
43520;DHT22;46848;51.980;5.918;2023-03-31T02:04:21;12.60;82.10
43520;DHT22;46848;51.980;5.918;2023-03-31T02:06:59;12.60;84.60
43520;DHT22;46848;51.980;5.918;2023-03-31T02:09:32;12.60;84.00
43520;DHT22;46848;51.980;5.918;2023-03-31T02:12:03;12.50;84.20
43520;DHT22;46848;51.980;5.918;2023-03-31T02:14:30;12.50;83.80
43520;DHT22;46848;51.980;5.918;2023-03-31T02:16:58;12.60;83.80
43520;DHT22;46848;51.980;5.918;2023-03-31T03:20:50;12.40;83.80
43520;DHT22;46848;51.980;5.918;2023-03-31T03:23:17;12.40;82.60
43520;DHT22;46848;51.980;5.918;2023-03-31T03:25:43;12.40;82.70
43520;DHT22;46848;51.980;5.918;2023-03-31T03:28:09;12.40;82.90
43520;DHT22;46848;51.980;5.918;2023-03-31T03:30:35;12.40;82.50
43520;DHT22;46848;51.980;5.918;2023-03-31T03:33:00;12.40;83.00
43520;DHT22;46848;51.980;5.918;2023-03-31T03:35:26;12.40;83.60
43520;DHT22;46848;51.980;5.918;2023-03-31T03:37:52;12.50;83.30
43520;DHT22;46848;51.980;5.918;2023-03-31T03:40:17;12.50;83.10
43520;DHT22;46848;51.980;5.918;2023-03-31T03:42:43;12.50;82.80
43520;DHT22;46848;51.980;5.918;2023-03-31T03:45:09;12.50;82.70
43520;DHT22;46848;51.980;5.918;2023-03-31T03:47:35;12.50;83.80
43520;DHT22;46848;51.980;5.918;2023-03-31T03:50:02;12.50;85.10
43520;DHT22;46848;51.980;5.918;2023-03-31T03:52:28;12.40;84.80
43520;DHT22;46848;51.980;5.918;2023-03-31T03:54:53;12.40;84.50
43520;DHT22;46848;51.980;5.918;2023-03-31T03:57:20;12.40;84.80
43520;DHT22;46848;51.980;5.918;2023-03-31T03:59:45;12.40;85.60
43520;DHT22;46848;51.980;5.918;2023-03-31T04:02:11;12.40;85.90
43520;DHT22;46848;51.980;5.918;2023-03-31T04:04:37;12.30;86.80
43520;DHT22;46848;51.980;5.918;2023-03-31T04:07:02;12.30;86.30
43520;DHT22;46848;51.980;5.918;2023-03-31T04:09:28;12.30;86.10
43520;DHT22;46848;51.980;5.918;2023-03-31T04:11:53;12.30;85.80
43520;DHT22;46848;51.980;5.918;2023-03-31T04:14:19;12.30;85.50
43520;DHT22;46848;51.980;5.918;2023-03-31T04:16:45;12.30;85.60
43520;DHT22;46848;51.980;5.918;2023-03-31T04:19:12;12.30;87.60
43520;DHT22;46848;51.980;5.918;2023-03-31T04:21:38;12.20;87.50
43520;DHT22;46848;51.980;5.918;2023-03-31T04:24:10;12.30;87.00
43520;DHT22;46848;51.980;5.918;2023-03-31T04:26:40;12.20;87.70
43520;DHT22;46848;51.980;5.918;2023-03-31T04:29:13;12.20;87.60
43520;DHT22;46848;51.980;5.918;2023-03-31T04:31:44;12.20;87.50
43520;DHT22;46848;51.980;5.918;2023-03-31T04:34:12;12.20;86.50
43520;DHT22;46848;51.980;5.918;2023-03-31T04:36:43;12.20;86.40
43520;DHT22;46848;51.980;5.918;2023-03-31T04:39:12;12.20;86.00
43520;DHT22;46848;51.980;5.918;2023-03-31T04:41:38;12.20;87.10
43520;DHT22;46848;51.980;5.918;2023-03-31T04:44:04;12.30;87.60
43520;DHT22;46848;51.980;5.918;2023-03-31T04:46:31;12.10;88.30
43520;DHT22;46848;51.980;5.918;2023-03-31T04:48:57;12.10;87.80
43520;DHT22;46848;51.980;5.918;2023-03-31T04:51:23;12.10;87.60
43520;DHT22;46848;51.980;5.918;2023-03-31T04:53:49;12.20;87.60
43520;DHT22;46848;51.980;5.918;2023-03-31T04:56:15;12.20;87.10
43520;DHT22;46848;51.980;5.918;2023-03-31T04:58:40;12.20;87.60
43520;DHT22;46848;51.980;5.918;2023-03-31T05:01:06;12.20;87.10
43520;DHT22;46848;51.980;5.918;2023-03-31T05:03:32;12.10;88.10
43520;DHT22;46848;51.980;5.918;2023-03-31T05:05:58;12.10;88.30
43520;DHT22;46848;51.980;5.918;2023-03-31T05:08:24;12.00;88.80
43520;DHT22;46848;51.980;5.918;2023-03-31T05:10:51;12.00;88.90
43520;DHT22;46848;51.980;5.918;2023-03-31T05:13:17;12.10;88.50
43520;DHT22;46848;51.980;5.918;2023-03-31T05:15:42;12.10;89.00
43520;DHT22;46848;51.980;5.918;2023-03-31T05:18:09;12.10;87.80
43520;DHT22;46848;51.980;5.918;2023-03-31T05:20:35;12.10;87.60
43520;DHT22;46848;51.980;5.918;2023-03-31T05:23:01;12.10;87.60
43520;DHT22;46848;51.980;5.918;2023-03-31T05:25:27;12.10;88.20
43520;DHT22;46848;51.980;5.918;2023-03-31T05:27:57;12.00;88.40
43520;DHT22;46848;51.980;5.918;2023-03-31T05:30:24;12.00;88.00
43520;DHT22;46848;51.980;5.918;2023-03-31T05:32:51;12.00;88.50
43520;DHT22;46848;51.980;5.918;2023-03-31T05:35:17;12.00;88.40
43520;DHT22;46848;51.980;5.918;2023-03-31T05:37:43;12.00;88.20
43520;DHT22;46848;51.980;5.918;2023-03-31T05:40:09;12.00;88.80
43520;DHT22;46848;51.980;5.918;2023-03-31T05:42:35;12.00;88.90
43520;DHT22;46848;51.980;5.918;2023-03-31T05:45:01;11.90;89.50
43520;DHT22;46848;51.980;5.918;2023-03-31T05:47:26;11.90;89.60
43520;DHT22;46848;51.980;5.918;2023-03-31T05:49:52;11.90;89.80
43520;DHT22;46848;51.980;5.918;2023-03-31T05:52:18;11.90;89.70
43520;DHT22;46848;51.980;5.918;2023-03-31T05:54:44;11.90;89.80
43520;DHT22;46848;51.980;5.918;2023-03-31T05:57:10;11.80;89.70
43520;DHT22;46848;51.980;5.918;2023-03-31T05:59:36;11.90;89.40
43520;DHT22;46848;51.980;5.918;2023-03-31T06:02:03;11.90;89.30
43520;DHT22;46848;51.980;5.918;2023-03-31T06:04:29;12.00;89.20
43520;DHT22;46848;51.980;5.918;2023-03-31T06:06:57;11.90;89.80
43520;DHT22;46848;51.980;5.918;2023-03-31T06:09:23;11.90;89.60
43520;DHT22;46848;51.980;5.918;2023-03-31T06:11:48;11.90;90.10
43520;DHT22;46848;51.980;5.918;2023-03-31T06:14:14;11.90;89.60
43520;DHT22;46848;51.980;5.918;2023-03-31T06:16:40;11.90;89.70
43520;DHT22;46848;51.980;5.918;2023-03-31T06:19:14;11.90;89.10
43520;DHT22;46848;51.980;5.918;2023-03-31T06:21:45;12.10;88.20
43520;DHT22;46848;51.980;5.918;2023-03-31T06:24:14;12.20;87.60
43520;DHT22;46848;51.980;5.918;2023-03-31T06:26:42;12.30;87.20
43520;DHT22;46848;51.980;5.918;2023-03-31T06:29:24;12.30;87.00
43520;DHT22;46848;51.980;5.918;2023-03-31T06:32:14;12.40;86.90
43520;DHT22;46848;51.980;5.918;2023-03-31T06:34:58;12.40;86.50
43520;DHT22;46848;51.980;5.918;2023-03-31T06:37:39;12.50;86.50
43520;DHT22;46848;51.980;5.918;2023-03-31T06:40:31;12.50;86.40
43520;DHT22;46848;51.980;5.918;2023-03-31T06:42:59;12.60;86.00
43520;DHT22;46848;51.980;5.918;2023-03-31T06:45:25;12.70;85.70
43520;DHT22;46848;51.980;5.918;2023-03-31T06:47:51;12.70;84.90
43520;DHT22;46848;51.980;5.918;2023-03-31T06:50:17;12.70;84.60
43520;DHT22;46848;51.980;5.918;2023-03-31T06:52:43;12.80;83.60
43520;DHT22;46848;51.980;5.918;2023-03-31T06:55:11;12.80;82.90
43520;DHT22;46848;51.980;5.918;2023-03-31T06:57:38;12.90;82.30
43520;DHT22;46848;51.980;5.918;2023-03-31T07:00:04;12.90;82.40
43520;DHT22;46848;51.980;5.918;2023-03-31T07:02:32;13.00;82.70
43520;DHT22;46848;51.980;5.918;2023-03-31T07:04:58;13.10;82.90
43520;DHT22;46848;51.980;5.918;2023-03-31T07:07:24;13.00;83.00
43520;DHT22;46848;51.980;5.918;2023-03-31T07:09:50;13.00;83.00
43520;DHT22;46848;51.980;5.918;2023-03-31T07:12:15;13.00;82.40
43520;DHT22;46848;51.980;5.918;2023-03-31T07:14:42;13.00;82.50
43520;DHT22;46848;51.980;5.918;2023-03-31T07:17:09;13.00;82.40
43520;DHT22;46848;51.980;5.918;2023-03-31T07:19:37;13.00;82.40
43520;DHT22;46848;51.980;5.918;2023-03-31T07:22:06;13.00;82.10
43520;DHT22;46848;51.980;5.918;2023-03-31T07:24:32;13.00;82.10
43520;DHT22;46848;51.980;5.918;2023-03-31T07:26:57;13.00;82.20
43520;DHT22;46848;51.980;5.918;2023-03-31T07:29:23;13.00;82.20
43520;DHT22;46848;51.980;5.918;2023-03-31T07:31:49;13.00;82.30
43520;DHT22;46848;51.980;5.918;2023-03-31T07:34:15;13.10;82.30
43520;DHT22;46848;51.980;5.918;2023-03-31T07:36:42;13.10;82.40
43520;DHT22;46848;51.980;5.918;2023-03-31T07:39:07;13.00;82.20
43520;DHT22;46848;51.980;5.918;2023-03-31T07:41:33;13.00;82.70
43520;DHT22;46848;51.980;5.918;2023-03-31T07:43:58;13.00;82.70
43520;DHT22;46848;51.980;5.918;2023-03-31T07:46:26;13.00;83.00
43520;DHT22;46848;51.980;5.918;2023-03-31T07:48:53;13.00;83.00
43520;DHT22;46848;51.980;5.918;2023-03-31T07:51:22;12.90;82.90
43520;DHT22;46848;51.980;5.918;2023-03-31T07:53:48;12.90;83.00
43520;DHT22;46848;51.980;5.918;2023-03-31T07:56:17;12.90;83.60
43520;DHT22;46848;51.980;5.918;2023-03-31T07:58:43;12.80;83.40
43520;DHT22;46848;51.980;5.918;2023-03-31T08:01:12;12.90;83.60
43520;DHT22;46848;51.980;5.918;2023-03-31T08:03:41;12.80;83.70
43520;DHT22;46848;51.980;5.918;2023-03-31T08:06:07;12.80;83.30
43520;DHT22;46848;51.980;5.918;2023-03-31T08:08:33;12.90;83.40
43520;DHT22;46848;51.980;5.918;2023-03-31T08:10:58;12.90;83.50
43520;DHT22;46848;51.980;5.918;2023-03-31T08:13:24;12.90;83.40
43520;DHT22;46848;51.980;5.918;2023-03-31T08:15:50;12.90;84.20
43520;DHT22;46848;51.980;5.918;2023-03-31T08:18:16;12.80;84.40
43520;DHT22;46848;51.980;5.918;2023-03-31T08:20:41;12.80;84.60
43520;DHT22;46848;51.980;5.918;2023-03-31T08:23:07;12.70;84.80
43520;DHT22;46848;51.980;5.918;2023-03-31T08:25:36;12.70;84.70
43520;DHT22;46848;51.980;5.918;2023-03-31T08:28:02;12.70;85.00
43520;DHT22;46848;51.980;5.918;2023-03-31T08:30:27;12.80;85.40
43520;DHT22;46848;51.980;5.918;2023-03-31T08:32:54;12.80;85.30
43520;DHT22;46848;51.980;5.918;2023-03-31T08:35:20;12.80;85.00
43520;DHT22;46848;51.980;5.918;2023-03-31T08:37:46;12.90;85.60
43520;DHT22;46848;51.980;5.918;2023-03-31T08:40:19;12.80;85.70
43520;DHT22;46848;51.980;5.918;2023-03-31T08:43:13;12.90;85.20
43520;DHT22;46848;51.980;5.918;2023-03-31T08:45:41;13.00;84.90
43520;DHT22;46848;51.980;5.918;2023-03-31T08:48:13;13.10;83.80
43520;DHT22;46848;51.980;5.918;2023-03-31T08:50:48;13.20;82.80
43520;DHT22;46848;51.980;5.918;2023-03-31T08:53:28;13.30;81.90
43520;DHT22;46848;51.980;5.918;2023-03-31T08:55:57;13.40;82.00
43520;DHT22;46848;51.980;5.918;2023-03-31T09:06:56;13.70;80.00
43520;DHT22;46848;51.980;5.918;2023-03-31T09:09:33;13.70;80.50
43520;DHT22;46848;51.980;5.918;2023-03-31T09:12:06;13.70;80.40
43520;DHT22;46848;51.980;5.918;2023-03-31T09:14:45;13.80;80.00
43520;DHT22;46848;51.980;5.918;2023-03-31T09:17:24;13.90;79.50
43520;DHT22;46848;51.980;5.918;2023-03-31T09:20:00;13.80;79.50
43520;DHT22;46848;51.980;5.918;2023-03-31T09:22:40;13.90;80.10
43520;DHT22;46848;51.980;5.918;2023-03-31T09:25:15;13.90;80.30
43520;DHT22;46848;51.980;5.918;2023-03-31T09:27:43;13.90;81.10
43520;DHT22;46848;51.980;5.918;2023-03-31T09:32:36;14.00;80.70
43520;DHT22;46848;51.980;5.918;2023-03-31T09:35:22;14.00;80.30
43520;DHT22;46848;51.980;5.918;2023-03-31T09:37:52;14.00;80.20
43520;DHT22;46848;51.980;5.918;2023-03-31T09:40:23;14.10;80.20
43520;DHT22;46848;51.980;5.918;2023-03-31T09:42:56;14.10;80.60
43520;DHT22;46848;51.980;5.918;2023-03-31T09:45:22;14.20;80.40
43520;DHT22;46848;51.980;5.918;2023-03-31T09:47:56;14.20;79.90
43520;DHT22;46848;51.980;5.918;2023-03-31T09:50:23;14.30;79.60
43520;DHT22;46848;51.980;5.918;2023-03-31T09:52:52;14.30;79.00
43520;DHT22;46848;51.980;5.918;2023-03-31T09:57:51;14.30;79.00
43520;DHT22;46848;51.980;5.918;2023-03-31T10:00:20;14.40;79.20
43520;DHT22;46848;51.980;5.918;2023-03-31T10:02:56;14.40;79.00
43520;DHT22;46848;51.980;5.918;2023-03-31T10:05:29;14.40;79.50
43520;DHT22;46848;51.980;5.918;2023-03-31T10:10:44;14.40;79.50
43520;DHT22;46848;51.980;5.918;2023-03-31T10:13:18;14.40;79.00
43520;DHT22;46848;51.980;5.918;2023-03-31T10:15:45;14.40;79.10
43520;DHT22;46848;51.980;5.918;2023-03-31T10:18:16;14.40;78.80
43520;DHT22;46848;51.980;5.918;2023-03-31T10:20:50;14.30;78.40
43520;DHT22;46848;51.980;5.918;2023-03-31T10:23:29;14.30;78.80
43520;DHT22;46848;51.980;5.918;2023-03-31T10:25:57;14.30;78.60
43520;DHT22;46848;51.980;5.918;2023-03-31T10:28:23;14.20;78.40
43520;DHT22;46848;51.980;5.918;2023-03-31T10:30:55;14.20;78.30
43520;DHT22;46848;51.980;5.918;2023-03-31T10:33:24;14.20;78.00
43520;DHT22;46848;51.980;5.918;2023-03-31T10:35:58;14.20;77.90
43520;DHT22;46848;51.980;5.918;2023-03-31T10:38:28;14.20;77.60
43520;DHT22;46848;51.980;5.918;2023-03-31T10:40:56;14.20;77.40
43520;DHT22;46848;51.980;5.918;2023-03-31T10:43:39;14.30;77.40
43520;DHT22;46848;51.980;5.918;2023-03-31T10:46:05;14.30;77.00
43520;DHT22;46848;51.980;5.918;2023-03-31T10:48:34;14.40;76.90
43520;DHT22;46848;51.980;5.918;2023-03-31T10:51:10;14.40;76.90
43520;DHT22;46848;51.980;5.918;2023-03-31T10:53:50;14.50;76.80
43520;DHT22;46848;51.980;5.918;2023-03-31T10:59:04;14.60;76.10
43520;DHT22;46848;51.980;5.918;2023-03-31T11:01:59;14.70;75.90
43520;DHT22;46848;51.980;5.918;2023-03-31T11:18:23;15.00;74.80
43520;DHT22;46848;51.980;5.918;2023-03-31T11:21:10;15.00;74.90
43520;DHT22;46848;51.980;5.918;2023-03-31T11:23:47;14.90;74.80
43520;DHT22;46848;51.980;5.918;2023-03-31T11:34:19;14.90;74.90
43520;DHT22;46848;51.980;5.918;2023-03-31T11:42:20;14.80;74.70
43520;DHT22;46848;51.980;5.918;2023-03-31T11:44:51;14.90;74.90
43520;DHT22;46848;51.980;5.918;2023-03-31T11:47:27;14.90;74.90
43520;DHT22;46848;51.980;5.918;2023-03-31T11:50:10;15.00;75.30
43520;DHT22;46848;51.980;5.918;2023-03-31T11:52:40;15.00;74.50
43520;DHT22;46848;51.980;5.918;2023-03-31T11:55:14;15.10;74.30
43520;DHT22;46848;51.980;5.918;2023-03-31T12:00:27;15.20;73.30
43520;DHT22;46848;51.980;5.918;2023-03-31T12:05:52;15.10;73.70
43520;DHT22;46848;51.980;5.918;2023-03-31T12:08:35;15.10;72.70
43520;DHT22;46848;51.980;5.918;2023-03-31T12:11:13;15.00;73.40
43520;DHT22;46848;51.980;5.918;2023-03-31T12:14:01;14.90;73.20
43520;DHT22;46848;51.980;5.918;2023-03-31T12:16:37;14.90;73.80
43520;DHT22;46848;51.980;5.918;2023-03-31T12:19:16;14.90;73.90
43520;DHT22;46848;51.980;5.918;2023-03-31T12:21:48;14.90;73.80
43520;DHT22;46848;51.980;5.918;2023-03-31T12:24:14;14.90;73.80
43520;DHT22;46848;51.980;5.918;2023-03-31T12:27:15;14.90;73.70
43520;DHT22;46848;51.980;5.918;2023-03-31T12:29:47;15.00;73.20
43520;DHT22;46848;51.980;5.918;2023-03-31T12:32:18;14.80;73.70
43520;DHT22;46848;51.980;5.918;2023-03-31T12:40:49;14.90;74.20
43520;DHT22;46848;51.980;5.918;2023-03-31T12:43:41;14.90;73.90
43520;DHT22;46848;51.980;5.918;2023-03-31T12:49:38;14.80;73.60
43520;DHT22;46848;51.980;5.918;2023-03-31T12:52:13;14.80;73.40
43520;DHT22;46848;51.980;5.918;2023-03-31T12:55:01;14.70;73.80
43520;DHT22;46848;51.980;5.918;2023-03-31T12:57:34;14.70;74.00
43520;DHT22;46848;51.980;5.918;2023-03-31T13:02:39;14.60;74.20
43520;DHT22;46848;51.980;5.918;2023-03-31T13:08:00;14.60;74.00
43520;DHT22;46848;51.980;5.918;2023-03-31T13:10:30;14.60;73.80
43520;DHT22;46848;51.980;5.918;2023-03-31T13:12:57;14.60;74.00
43520;DHT22;46848;51.980;5.918;2023-03-31T13:15:26;14.50;74.10
43520;DHT22;46848;51.980;5.918;2023-03-31T13:17:58;14.50;74.20
43520;DHT22;46848;51.980;5.918;2023-03-31T13:20:39;14.50;73.90
43520;DHT22;46848;51.980;5.918;2023-03-31T13:23:28;14.50;74.00
43520;DHT22;46848;51.980;5.918;2023-03-31T13:25:53;14.50;73.70
43520;DHT22;46848;51.980;5.918;2023-03-31T13:31:02;14.60;73.90
43520;DHT22;46848;51.980;5.918;2023-03-31T13:33:42;14.60;74.60
43520;DHT22;46848;51.980;5.918;2023-03-31T13:50:02;14.30;75.80
43520;DHT22;46848;51.980;5.918;2023-03-31T14:07:19;13.90;77.80
43520;DHT22;46848;51.980;5.918;2023-03-31T14:09:46;13.90;78.40
43520;DHT22;46848;51.980;5.918;2023-03-31T14:14:44;13.70;79.00
43520;DHT22;46848;51.980;5.918;2023-03-31T14:17:11;13.60;79.10
43520;DHT22;46848;51.980;5.918;2023-03-31T14:31:21;13.80;78.30
43520;DHT22;46848;51.980;5.918;2023-03-31T14:36:39;13.90;78.30
43520;DHT22;46848;51.980;5.918;2023-03-31T14:39:14;13.80;78.10
43520;DHT22;46848;51.980;5.918;2023-03-31T14:41:52;13.80;78.00
43520;DHT22;46848;51.980;5.918;2023-03-31T14:44:19;13.80;78.20
43520;DHT22;46848;51.980;5.918;2023-03-31T14:46:45;13.80;78.70
43520;DHT22;46848;51.980;5.918;2023-03-31T14:49:18;13.70;78.50
43520;DHT22;46848;51.980;5.918;2023-03-31T14:51:45;13.70;78.60
43520;DHT22;46848;51.980;5.918;2023-03-31T14:54:18;13.70;78.80
43520;DHT22;46848;51.980;5.918;2023-03-31T14:56:50;13.70;78.90
43520;DHT22;46848;51.980;5.918;2023-03-31T14:59:20;13.60;78.80
43520;DHT22;46848;51.980;5.918;2023-03-31T15:01:47;13.50;78.90
43520;DHT22;46848;51.980;5.918;2023-03-31T15:04:15;13.60;78.90
43520;DHT22;46848;51.980;5.918;2023-03-31T15:06:44;13.60;79.80
43520;DHT22;46848;51.980;5.918;2023-03-31T15:09:25;13.50;79.10
43520;DHT22;46848;51.980;5.918;2023-03-31T15:12:03;13.50;79.30
43520;DHT22;46848;51.980;5.918;2023-03-31T15:14:41;13.40;80.00
43520;DHT22;46848;51.980;5.918;2023-03-31T15:17:25;13.30;80.50
43520;DHT22;46848;51.980;5.918;2023-03-31T15:19:57;13.20;80.80
43520;DHT22;46848;51.980;5.918;2023-03-31T15:22:25;13.20;80.80
43520;DHT22;46848;51.980;5.918;2023-03-31T15:24:52;13.20;80.50
43520;DHT22;46848;51.980;5.918;2023-03-31T15:29:53;13.20;80.40
43520;DHT22;46848;51.980;5.918;2023-03-31T15:32:33;13.30;80.90
43520;DHT22;46848;51.980;5.918;2023-03-31T15:34:59;13.30;80.70
43520;DHT22;46848;51.980;5.918;2023-03-31T15:37:41;13.30;80.10
43520;DHT22;46848;51.980;5.918;2023-03-31T15:40:26;13.30;80.40
43520;DHT22;46848;51.980;5.918;2023-03-31T15:43:04;13.30;80.30
43520;DHT22;46848;51.980;5.918;2023-03-31T15:48:03;13.20;80.10
43520;DHT22;46848;51.980;5.918;2023-03-31T15:50:31;13.30;79.90
43520;DHT22;46848;51.980;5.918;2023-03-31T15:52:57;13.20;80.30
43520;DHT22;46848;51.980;5.918;2023-03-31T15:57:54;13.20;81.30
43520;DHT22;46848;51.980;5.918;2023-03-31T16:03:15;13.20;81.10
43520;DHT22;46848;51.980;5.918;2023-03-31T16:05:55;13.10;80.70
43520;DHT22;46848;51.980;5.918;2023-03-31T16:08:59;13.10;81.40
43520;DHT22;46848;51.980;5.918;2023-03-31T16:14:10;13.00;81.70
43520;DHT22;46848;51.980;5.918;2023-03-31T16:16:36;13.00;81.10
43520;DHT22;46848;51.980;5.918;2023-03-31T16:19:06;12.90;81.10
43520;DHT22;46848;51.980;5.918;2023-03-31T16:21:46;13.00;80.90
43520;DHT22;46848;51.980;5.918;2023-03-31T16:24:20;13.00;80.60
43520;DHT22;46848;51.980;5.918;2023-03-31T16:27:00;13.00;80.40
43520;DHT22;46848;51.980;5.918;2023-03-31T16:29:31;13.00;80.70
43520;DHT22;46848;51.980;5.918;2023-03-31T16:32:23;13.00;80.50
43520;DHT22;46848;51.980;5.918;2023-03-31T16:34:58;13.00;80.50
43520;DHT22;46848;51.980;5.918;2023-03-31T16:37:24;12.90;80.80
43520;DHT22;46848;51.980;5.918;2023-03-31T16:39:50;12.90;81.10
43520;DHT22;46848;51.980;5.918;2023-03-31T16:42:17;12.90;80.50
43520;DHT22;46848;51.980;5.918;2023-03-31T16:44:43;12.90;80.20
43520;DHT22;46848;51.980;5.918;2023-03-31T16:47:11;12.90;80.40
43520;DHT22;46848;51.980;5.918;2023-03-31T16:49:36;12.80;80.20
43520;DHT22;46848;51.980;5.918;2023-03-31T16:52:02;12.90;80.30
43520;DHT22;46848;51.980;5.918;2023-03-31T16:54:29;12.80;80.80
43520;DHT22;46848;51.980;5.918;2023-03-31T16:56:55;12.90;81.00
43520;DHT22;46848;51.980;5.918;2023-03-31T16:59:22;12.80;80.60
43520;DHT22;46848;51.980;5.918;2023-03-31T17:01:48;12.70;81.00
43520;DHT22;46848;51.980;5.918;2023-03-31T17:04:13;12.80;80.80
43520;DHT22;46848;51.980;5.918;2023-03-31T17:06:39;12.80;81.40
43520;DHT22;46848;51.980;5.918;2023-03-31T17:09:05;12.80;81.80
43520;DHT22;46848;51.980;5.918;2023-03-31T17:11:30;12.70;82.50
43520;DHT22;46848;51.980;5.918;2023-03-31T17:13:56;12.70;81.90
43520;DHT22;46848;51.980;5.918;2023-03-31T17:16:24;12.70;81.80
43520;DHT22;46848;51.980;5.918;2023-03-31T17:18:51;12.70;82.00
43520;DHT22;46848;51.980;5.918;2023-03-31T17:21:17;12.60;83.30
43520;DHT22;46848;51.980;5.918;2023-03-31T17:23:44;12.60;83.00
43520;DHT22;46848;51.980;5.918;2023-03-31T17:26:11;12.60;82.40
43520;DHT22;46848;51.980;5.918;2023-03-31T17:28:40;12.60;82.80
43520;DHT22;46848;51.980;5.918;2023-03-31T17:31:14;12.50;82.40
43520;DHT22;46848;51.980;5.918;2023-03-31T17:33:40;12.50;82.50
43520;DHT22;46848;51.980;5.918;2023-03-31T17:36:06;12.50;82.90
43520;DHT22;46848;51.980;5.918;2023-03-31T17:38:32;12.50;83.80
43520;DHT22;46848;51.980;5.918;2023-03-31T17:41:03;12.50;83.20
43520;DHT22;46848;51.980;5.918;2023-03-31T17:43:29;12.50;83.40
43520;DHT22;46848;51.980;5.918;2023-03-31T17:46:08;12.50;83.50
43520;DHT22;46848;51.980;5.918;2023-03-31T17:48:37;12.50;83.90
43520;DHT22;46848;51.980;5.918;2023-03-31T17:51:12;12.50;83.40
43520;DHT22;46848;51.980;5.918;2023-03-31T17:53:40;12.40;83.00
43520;DHT22;46848;51.980;5.918;2023-03-31T17:56:06;12.40;84.20
43520;DHT22;46848;51.980;5.918;2023-03-31T17:58:32;12.40;83.50
43520;DHT22;46848;51.980;5.918;2023-03-31T18:00:58;12.40;83.50
43520;DHT22;46848;51.980;5.918;2023-03-31T18:03:26;12.40;83.30
43520;DHT22;46848;51.980;5.918;2023-03-31T18:05:52;12.40;83.00
43520;DHT22;46848;51.980;5.918;2023-03-31T18:08:18;12.30;85.40
43520;DHT22;46848;51.980;5.918;2023-03-31T18:10:43;12.30;85.80
43520;DHT22;46848;51.980;5.918;2023-03-31T18:13:10;12.30;85.20
43520;DHT22;46848;51.980;5.918;2023-03-31T18:15:36;12.20;86.20
43520;DHT22;46848;51.980;5.918;2023-03-31T18:18:02;12.10;87.00
43520;DHT22;46848;51.980;5.918;2023-03-31T18:20:28;12.10;86.20
43520;DHT22;46848;51.980;5.918;2023-03-31T18:22:54;12.20;86.10
43520;DHT22;46848;51.980;5.918;2023-03-31T18:25:19;12.10;86.70
43520;DHT22;46848;51.980;5.918;2023-03-31T18:27:45;12.10;87.20
43520;DHT22;46848;51.980;5.918;2023-03-31T18:30:12;12.10;87.30
43520;DHT22;46848;51.980;5.918;2023-03-31T18:32:38;12.10;86.90
43520;DHT22;46848;51.980;5.918;2023-03-31T18:35:04;12.10;86.50
43520;DHT22;46848;51.980;5.918;2023-03-31T18:37:30;12.10;86.10
43520;DHT22;46848;51.980;5.918;2023-03-31T18:39:56;12.10;87.50
43520;DHT22;46848;51.980;5.918;2023-03-31T18:42:22;12.10;86.70
43520;DHT22;46848;51.980;5.918;2023-03-31T18:44:53;12.10;85.90
43520;DHT22;46848;51.980;5.918;2023-03-31T18:47:19;12.10;85.70
43520;DHT22;46848;51.980;5.918;2023-03-31T18:49:46;12.10;85.10
43520;DHT22;46848;51.980;5.918;2023-03-31T18:52:18;12.10;86.40
43520;DHT22;46848;51.980;5.918;2023-03-31T18:54:44;12.10;86.80
43520;DHT22;46848;51.980;5.918;2023-03-31T18:57:10;12.10;86.10
43520;DHT22;46848;51.980;5.918;2023-03-31T18:59:35;12.10;85.70
43520;DHT22;46848;51.980;5.918;2023-03-31T19:02:01;12.10;85.50
43520;DHT22;46848;51.980;5.918;2023-03-31T19:04:27;12.10;85.60
43520;DHT22;46848;51.980;5.918;2023-03-31T19:06:54;12.10;86.10
43520;DHT22;46848;51.980;5.918;2023-03-31T19:09:21;12.10;86.80
43520;DHT22;46848;51.980;5.918;2023-03-31T19:11:51;12.10;86.30
43520;DHT22;46848;51.980;5.918;2023-03-31T19:14:18;12.10;86.10
43520;DHT22;46848;51.980;5.918;2023-03-31T19:16:43;12.00;87.20
43520;DHT22;46848;51.980;5.918;2023-03-31T19:19:10;12.00;87.00
43520;DHT22;46848;51.980;5.918;2023-03-31T19:21:36;12.00;88.00
43520;DHT22;46848;51.980;5.918;2023-03-31T19:24:04;12.00;87.80